KHTL/HTL METAR and TAF weather

Enter ICAO airport designator
Station Type Date Time Source
KHTL METAR 2020/01/17 13:53 UTC NOAA

KHTL 171353Z AUTO 09003KT 10SM OVC023 M09/M13 A3079 RMK AO2 SLP452 T10941133


Station Type Date Time Source
KHTL Decoded METAR 2020/01/17 13:53 UTC NOAA

ROSCOMMON COUNTY AIRPORT, MI, United States (KHTL) 44-21N 084-40W 351M
Jan 17, 2020 - 08:53 AM EST / 2020.01.17 1353 UTC
Wind: from the E (090 degrees) at 3 MPH (3 KT):0
Visibility: 10 mile(s):0
Sky conditions: overcast
Temperature: 15.1 F (-9.4 C)
Dew Point: 8.1 F (-13.3 C)
Relative Humidity: 73%
Pressure (altimeter): 30.79 in. Hg (1042 hPa)
ob: KHTL 171353Z AUTO 09003KT 10SM OVC023 M09/M13 A3079 RMK AO2 SLP452 T10941133
cycle: 14

Station Type Date Time Source
KHTL TAF UTC NOAA

Error!

Example: see airport list